createdAt,value
2018-09-02T00:01:36.511Z,11.68
2018-09-02T00:04:41.039Z,11.71
2018-09-02T00:07:45.359Z,11.74
2018-09-02T00:10:49.818Z,11.69
2018-09-02T00:13:54.160Z,11.70
2018-09-02T00:16:58.634Z,11.71
2018-09-02T00:20:03.161Z,11.78
2018-09-02T00:23:08.060Z,11.72
2018-09-02T00:26:12.416Z,11.78
2018-09-02T00:29:16.873Z,11.75
2018-09-02T00:32:21.250Z,11.77
2018-09-02T00:35:25.761Z,11.83
2018-09-02T00:38:30.563Z,11.81
2018-09-02T00:41:35.942Z,11.82
2018-09-02T00:44:40.307Z,11.85
2018-09-02T00:47:44.779Z,11.92
2018-09-02T00:50:49.136Z,11.82
2018-09-02T00:53:53.597Z,11.89
2018-09-02T00:56:58.193Z,11.82
2018-09-02T01:00:02.580Z,11.73
2018-09-02T01:03:06.917Z,11.74
2018-09-02T01:06:11.337Z,11.75
2018-09-02T01:09:15.731Z,11.75
2018-09-02T01:12:20.363Z,11.72
2018-09-02T01:15:24.699Z,11.89
2018-09-02T01:18:29.140Z,11.83
2018-09-02T01:21:33.473Z,11.76
2018-09-02T01:24:37.818Z,11.85
2018-09-02T01:27:42.749Z,11.75
2018-09-02T01:30:47.103Z,11.76
2018-09-02T01:33:51.534Z,11.80
2018-09-02T01:36:55.894Z,11.79
2018-09-02T01:40:00.257Z,11.74
2018-09-02T01:43:05.396Z,11.70
2018-09-02T01:46:09.750Z,11.75
2018-09-02T01:49:14.213Z,11.72
2018-09-02T01:52:18.573Z,11.70
2018-09-02T01:55:22.986Z,11.73
2018-09-02T01:58:27.502Z,11.76
2018-09-02T02:01:31.905Z,11.93
2018-09-02T02:04:41.305Z,11.79
2018-09-02T02:07:45.649Z,11.72
2018-09-02T02:10:50.009Z,11.72
2018-09-02T02:13:54.345Z,11.70
2018-09-02T02:16:58.691Z,11.67
2018-09-02T02:20:03.005Z,11.68
2018-09-02T02:23:07.436Z,11.63
2018-09-02T02:26:11.745Z,11.67
2018-09-02T02:29:16.089Z,11.69
2018-09-02T02:32:20.441Z,11.72
2018-09-02T02:35:24.777Z,11.70
2018-09-02T02:38:29.126Z,11.74
2018-09-02T02:41:33.481Z,11.70
2018-09-02T02:44:37.849Z,11.71
2018-09-02T02:47:42.210Z,11.75
2018-09-02T02:50:46.596Z,11.75
2018-09-02T02:53:50.964Z,11.86
2018-09-02T02:56:55.293Z,11.77
2018-09-02T02:59:59.661Z,11.75
2018-09-02T03:03:04.005Z,11.79
2018-09-02T03:06:08.352Z,11.76
2018-09-02T03:09:13.254Z,11.79
2018-09-02T03:12:17.653Z,11.80
2018-09-02T03:15:22.096Z,11.81
2018-09-02T03:18:26.466Z,11.83
2018-09-02T03:21:30.835Z,11.85
2018-09-02T03:24:35.536Z,11.85
2018-09-02T03:27:39.909Z,11.89
2018-09-02T03:30:44.343Z,11.89
2018-09-02T03:33:48.694Z,11.85
2018-09-02T03:36:53.145Z,11.92
2018-09-02T03:39:57.625Z,11.97
2018-09-02T03:43:02.026Z,11.93
2018-09-02T03:46:06.422Z,11.95
2018-09-02T03:49:11.136Z,11.91
2018-09-02T03:52:15.629Z,11.90
2018-09-02T03:55:20.206Z,11.89
2018-09-02T03:58:24.609Z,11.88
2018-09-02T04:01:28.978Z,11.89
2018-09-02T04:04:33.385Z,11.91
2018-09-02T04:07:37.717Z,11.87
2018-09-02T04:10:42.083Z,11.90
2018-09-02T04:13:46.513Z,11.97
2018-09-02T04:16:50.913Z,11.91
2018-09-02T04:19:55.273Z,11.87
2018-09-02T04:22:59.662Z,11.90
2018-09-02T04:26:04.106Z,11.91
2018-09-02T04:29:08.453Z,11.93
2018-09-02T04:32:12.818Z,11.97
2018-09-02T04:35:17.177Z,11.98
2018-09-02T04:38:21.565Z,11.95
2018-09-02T04:41:26.595Z,11.98
2018-09-02T04:44:30.893Z,12.07
2018-09-02T04:47:35.292Z,12.06
2018-09-02T04:50:40.389Z,12.03
2018-09-02T04:53:44.809Z,12.05
2018-09-02T04:56:49.176Z,12.05
2018-09-02T04:59:53.634Z,12.14
2018-09-02T05:02:58.049Z,12.12
2018-09-02T05:06:02.455Z,12.16
2018-09-02T05:09:07.387Z,12.19
2018-09-02T05:12:11.744Z,12.27
2018-09-02T05:15:16.378Z,12.26
2018-09-02T05:18:20.780Z,12.37
2018-09-02T05:21:25.118Z,12.41
2018-09-02T05:24:29.485Z,12.41
2018-09-02T05:27:33.907Z,12.47
2018-09-02T05:30:38.281Z,12.57
2018-09-02T05:33:42.758Z,12.45
2018-09-02T05:36:47.419Z,12.48
2018-09-02T05:39:51.942Z,12.52
2018-09-02T05:42:56.311Z,12.59
2018-09-02T05:46:00.681Z,12.69
2018-09-02T05:49:06.201Z,12.70
2018-09-02T05:52:10.615Z,12.73
2018-09-02T05:55:15.001Z,12.80
2018-09-02T05:58:19.460Z,12.79
2018-09-02T06:01:23.789Z,12.84
2018-09-02T06:04:28.167Z,12.88
2018-09-02T06:07:32.609Z,12.95
2018-09-02T06:10:37.051Z,13.02
2018-09-02T06:13:41.382Z,13.10
2018-09-02T06:16:46.122Z,13.36
2018-09-02T06:19:50.457Z,13.53
2018-09-02T06:22:55.625Z,13.68
2018-09-02T06:26:00.119Z,13.64
2018-09-02T06:29:04.629Z,13.59
2018-09-02T06:32:09.030Z,13.66
2018-09-02T06:35:13.461Z,13.60
2018-09-02T06:38:18.040Z,13.45
2018-09-02T06:41:22.441Z,13.39
2018-09-02T06:44:26.879Z,13.48
2018-09-02T06:47:31.840Z,13.61
2018-09-02T06:50:36.191Z,13.72
2018-09-02T06:53:40.523Z,13.80
2018-09-02T06:56:45.073Z,13.83
2018-09-02T06:59:49.430Z,13.82
2018-09-02T07:02:53.817Z,13.77
2018-09-02T07:05:58.635Z,13.54
2018-09-02T07:09:03.085Z,13.44
2018-09-02T07:12:07.446Z,13.48
2018-09-02T07:15:12.120Z,13.61
2018-09-02T07:18:16.788Z,13.81
2018-09-02T07:21:21.132Z,13.76
2018-09-02T07:24:25.495Z,13.78
2018-09-02T07:27:29.909Z,13.65
2018-09-02T07:30:34.404Z,13.73
2018-09-02T07:33:39.459Z,13.88
2018-09-02T07:36:43.831Z,13.78
2018-09-02T07:39:48.456Z,13.90
2018-09-02T07:42:53.023Z,13.67
2018-09-02T07:45:57.597Z,14.01
2018-09-02T07:49:01.953Z,14.11
2018-09-02T07:52:06.307Z,14.17
2018-09-02T07:55:11.313Z,14.28
2018-09-02T07:58:15.723Z,14.35
2018-09-02T08:01:20.072Z,13.93
2018-09-02T08:04:24.433Z,13.84
2018-09-02T08:07:28.933Z,13.80
2018-09-02T08:10:33.306Z,13.87
2018-09-02T08:13:37.769Z,14.17
2018-09-02T08:16:42.165Z,14.58
2018-09-02T08:19:46.917Z,14.30
2018-09-02T08:22:51.298Z,13.94
2018-09-02T08:25:55.669Z,13.81
2018-09-02T08:29:00.045Z,13.83
2018-09-02T08:32:04.449Z,14.01
2018-09-02T08:35:08.839Z,14.12
2018-09-02T08:38:13.233Z,14.15
2018-09-02T08:41:17.681Z,14.34
2018-09-02T08:44:22.315Z,14.69
2018-09-02T08:48:06.098Z,14.96
2018-09-02T08:51:55.223Z,14.83
2018-09-02T09:34:00.458Z,16.09
2018-09-02T09:37:08.434Z,17.32
2018-09-02T09:40:13.074Z,17.58
2018-09-02T09:43:19.641Z,17.34
2018-09-02T09:46:24.522Z,17.38
2018-09-02T09:49:31.450Z,17.34
2018-09-02T09:52:35.950Z,17.16
2018-09-02T09:55:40.561Z,17.64
2018-09-02T09:58:44.939Z,17.92
2018-09-02T10:05:29.808Z,18.27
2018-09-02T10:08:49.399Z,18.23
2018-09-02T10:11:54.519Z,17.73
2018-09-02T10:15:00.216Z,17.53
2018-09-02T10:18:25.387Z,17.55
2018-09-02T10:21:35.831Z,17.64
2018-09-02T10:24:42.336Z,17.59
2018-09-02T10:27:50.593Z,17.47
2018-09-02T10:30:55.169Z,17.37
2018-09-02T10:33:59.806Z,17.57
2018-09-02T10:37:04.517Z,17.36
2018-09-02T10:40:08.925Z,17.01
2018-09-02T10:43:13.553Z,17.14
2018-09-02T10:46:18.183Z,17.23
2018-09-02T10:49:24.382Z,17.37
2018-09-02T10:52:29.860Z,17.42
2018-09-02T10:55:35.822Z,16.73
2018-09-02T10:58:42.067Z,16.50
2018-09-02T11:01:47.238Z,16.35
2018-09-02T11:04:53.427Z,16.61
2018-09-02T11:07:59.438Z,16.77
2018-09-02T11:11:05.024Z,16.94
2018-09-02T11:14:10.872Z,17.37
2018-09-02T11:17:18.243Z,17.65
2018-09-02T11:20:24.774Z,17.31
2018-09-02T11:23:30.068Z,17.53
2018-09-02T11:26:35.588Z,17.68
2018-09-02T11:33:50.494Z,17.29
2018-09-02T11:36:56.232Z,17.56
2018-09-02T11:40:01.504Z,17.89
2018-09-02T11:43:06.573Z,18.37
2018-09-02T11:46:12.011Z,18.67
2018-09-02T11:49:18.275Z,18.58
2018-09-02T11:52:24.332Z,18.05
2018-09-02T11:55:31.029Z,18.81
2018-09-02T11:58:36.540Z,19.54
2018-09-02T12:01:41.640Z,19.79
2018-09-02T12:04:46.526Z,20.13
2018-09-02T12:07:52.267Z,19.20
2018-09-02T12:10:56.871Z,19.59
2018-09-02T12:14:01.862Z,19.80
2018-09-02T12:17:06.590Z,20.08
2018-09-02T12:20:11.078Z,20.28
2018-09-02T12:23:15.625Z,20.27
2018-09-02T12:26:21.352Z,20.56
2018-09-02T12:29:26.045Z,20.44
2018-09-02T12:32:30.782Z,20.11
2018-09-02T12:35:35.634Z,19.73
2018-09-02T12:38:40.198Z,19.45
2018-09-02T12:41:44.876Z,18.45
2018-09-02T12:44:49.662Z,18.00
2018-09-02T12:47:55.049Z,17.72
2018-09-02T12:50:59.408Z,17.73
2018-09-02T12:54:03.933Z,17.55
2018-09-02T12:57:08.568Z,17.71
2018-09-02T13:00:13.122Z,18.26
2018-09-02T13:03:18.945Z,18.55
2018-09-02T13:06:24.124Z,18.57
2018-09-02T13:09:29.277Z,17.84
2018-09-02T13:12:37.761Z,17.33
2018-09-02T13:15:42.485Z,17.41
2018-09-02T13:18:48.034Z,17.71
2018-09-02T13:21:53.120Z,18.12
2018-09-02T13:24:58.091Z,18.31
2018-09-02T13:28:02.662Z,18.28
2018-09-02T13:31:07.280Z,18.29
2018-09-02T13:34:13.396Z,18.18
2018-09-02T13:37:18.147Z,18.84
2018-09-02T13:40:22.887Z,18.93
2018-09-02T13:43:27.713Z,19.81
2018-09-02T13:46:32.241Z,19.96
2018-09-02T13:49:36.878Z,20.17
2018-09-02T13:52:41.578Z,20.25
2018-09-02T13:55:46.493Z,19.52
2018-09-02T13:58:53.181Z,19.84
2018-09-02T14:01:59.322Z,19.94
2018-09-02T14:05:03.965Z,19.83
2018-09-02T14:08:08.828Z,19.91
2018-09-02T14:11:13.475Z,19.76
2018-09-02T14:14:17.983Z,19.20
2018-09-02T14:17:23.519Z,18.71
2018-09-02T14:20:28.207Z,18.33
2018-09-02T14:23:33.393Z,18.43
2018-09-02T14:26:38.689Z,18.10
2018-09-02T14:29:43.204Z,17.84
2018-09-02T14:32:48.507Z,17.73
2018-09-02T14:35:56.604Z,17.63
2018-09-02T14:39:01.545Z,17.52
2018-09-02T14:42:06.420Z,17.58
2018-09-02T14:45:12.277Z,17.38
2018-09-02T14:48:17.450Z,17.42
2018-09-02T14:51:23.939Z,17.46
2018-09-02T14:54:30.828Z,17.37
2018-09-02T14:57:36.756Z,17.29
2018-09-02T15:00:52.759Z,17.25
2018-09-02T15:03:58.956Z,17.31
2018-09-02T15:07:03.821Z,17.33
2018-09-02T15:10:08.394Z,17.23
2018-09-02T15:13:13.344Z,17.19
2018-09-02T15:16:18.157Z,17.44
2018-09-02T15:19:23.570Z,17.59
2018-09-02T15:22:28.941Z,17.65
2018-09-02T15:25:33.736Z,17.71
2018-09-02T15:28:43.863Z,17.79
2018-09-02T15:31:48.783Z,17.95
2018-09-02T15:34:53.464Z,17.76
2018-09-02T15:37:58.250Z,17.84
2018-09-02T15:41:06.256Z,17.98
2018-09-02T15:44:11.557Z,17.77
2018-09-02T15:47:16.048Z,17.33
2018-09-02T15:50:21.290Z,17.33
2018-09-02T15:53:26.129Z,17.41
2018-09-02T15:56:31.655Z,17.45
2018-09-02T15:59:36.444Z,17.43
2018-09-02T16:02:40.983Z,17.24
2018-09-02T16:05:46.121Z,17.13
2018-09-02T16:08:51.153Z,17.00
2018-09-02T16:11:56.032Z,16.85
2018-09-02T16:15:00.797Z,16.74
2018-09-02T16:18:06.015Z,16.57
2018-09-02T16:21:10.507Z,16.37
2018-09-02T16:24:15.216Z,16.25
2018-09-02T16:27:20.082Z,16.14
2018-09-02T16:30:24.997Z,16.04
2018-09-02T16:33:29.854Z,15.96
2018-09-02T16:36:35.023Z,15.90
2018-09-02T16:39:39.910Z,15.95
2018-09-02T16:42:44.458Z,15.86
2018-09-02T16:45:49.231Z,15.75
2018-09-02T16:48:54.399Z,15.81
2018-09-02T16:51:59.926Z,15.82
2018-09-02T16:55:04.718Z,15.80
2018-09-02T16:58:09.502Z,15.81
2018-09-02T17:01:15.094Z,15.79
2018-09-02T17:04:20.986Z,15.75
2018-09-02T17:07:26.737Z,15.77
2018-09-02T17:10:31.242Z,15.96
2018-09-02T17:13:36.191Z,15.86
2018-09-02T17:16:40.669Z,15.71
2018-09-02T17:19:48.239Z,15.69
2018-09-02T17:22:55.896Z,15.64
2018-09-02T17:26:01.230Z,15.75
2018-09-02T17:29:05.948Z,15.62
2018-09-02T17:32:13.041Z,15.55
2018-09-02T17:35:17.955Z,15.61
2018-09-02T17:38:22.690Z,15.54
2018-09-02T17:41:28.341Z,15.58
2018-09-02T17:44:34.158Z,15.49
2018-09-02T17:47:39.045Z,15.44
2018-09-02T17:50:43.963Z,15.31
2018-09-02T17:53:48.888Z,15.36
2018-09-02T17:56:53.539Z,15.24
2018-09-02T17:59:58.304Z,15.44
2018-09-02T18:03:02.911Z,15.27
2018-09-02T18:06:08.797Z,15.24
2018-09-02T18:09:13.240Z,15.14
2018-09-02T18:12:17.977Z,15.17
2018-09-02T18:15:23.652Z,15.17
2018-09-02T18:18:28.181Z,15.16
2018-09-02T18:21:32.793Z,15.14
2018-09-02T18:24:37.374Z,15.11
2018-09-02T18:27:44.638Z,15.10
2018-09-02T18:30:49.150Z,15.14
2018-09-02T18:33:53.623Z,15.20
2018-09-02T18:36:58.310Z,15.08
2018-09-02T18:40:02.847Z,15.09
2018-09-02T18:43:07.744Z,15.18
2018-09-02T18:46:13.154Z,15.17
2018-09-02T18:49:17.684Z,15.08
2018-09-02T18:52:22.101Z,15.08
2018-09-02T18:55:27.088Z,15.01
2018-09-02T18:58:33.187Z,14.94
2018-09-02T19:01:38.127Z,14.93
2018-09-02T19:04:42.916Z,15.04
2018-09-02T19:07:47.669Z,14.97
2018-09-02T19:10:52.626Z,14.86
2018-09-02T19:13:57.164Z,14.90
2018-09-02T19:17:02.150Z,14.85
2018-09-02T19:20:07.691Z,14.82
2018-09-02T19:23:12.625Z,14.85
2018-09-02T19:26:18.173Z,14.79
2018-09-02T19:29:23.093Z,14.79
2018-09-02T19:32:27.943Z,14.85
2018-09-02T19:35:33.409Z,14.88
2018-09-02T19:38:38.261Z,14.93
2018-09-02T19:41:43.070Z,14.89
2018-09-02T19:44:47.792Z,14.98
2018-09-02T19:47:52.827Z,15.02
2018-09-02T19:50:58.298Z,14.87
2018-09-02T19:54:03.238Z,14.71
2018-09-02T19:57:08.131Z,14.63
2018-09-02T20:00:13.889Z,14.60
2018-09-02T20:03:18.646Z,14.58
2018-09-02T20:06:24.411Z,14.62
2018-09-02T20:09:29.456Z,14.60
2018-09-02T20:12:34.495Z,14.61
2018-09-02T20:15:39.140Z,14.62
2018-09-02T20:18:43.897Z,14.66
2018-09-02T20:21:48.343Z,14.65
2018-09-02T20:24:52.933Z,14.66
2018-09-02T20:27:58.013Z,14.68
2018-09-02T20:31:02.612Z,14.82
2018-09-02T20:34:06.986Z,14.71
2018-09-02T20:37:11.765Z,14.66
2018-09-02T20:40:16.397Z,14.52
2018-09-02T20:43:21.288Z,14.44
2018-09-02T20:46:26.252Z,14.25
2018-09-02T20:49:31.286Z,14.15
2018-09-02T20:52:35.890Z,14.16
2018-09-02T20:55:40.555Z,13.93
2018-09-02T20:58:45.238Z,13.84
2018-09-02T21:01:50.667Z,13.80
2018-09-02T21:04:56.320Z,13.83
2018-09-02T21:08:00.679Z,13.90
2018-09-02T21:11:05.197Z,13.98
2018-09-02T21:14:09.814Z,14.12
2018-09-02T21:17:14.327Z,14.03
2018-09-02T21:20:19.224Z,14.06
2018-09-02T21:23:23.946Z,14.02
2018-09-02T21:26:28.455Z,14.06
2018-09-02T21:29:32.921Z,14.13
2018-09-02T21:32:37.333Z,14.20
2018-09-02T21:35:41.829Z,14.23
2018-09-02T21:38:46.657Z,14.19
2018-09-02T21:41:51.234Z,14.16
2018-09-02T21:44:55.859Z,14.16
2018-09-02T21:48:00.397Z,14.15
2018-09-02T21:51:04.812Z,14.09
2018-09-02T21:54:09.499Z,14.09
2018-09-02T21:57:14.146Z,14.07
2018-09-02T22:00:18.928Z,14.02
2018-09-02T22:03:23.473Z,14.02
2018-09-02T22:06:27.965Z,14.06
2018-09-02T22:09:47.188Z,14.10
2018-09-02T22:12:51.594Z,14.11
2018-09-02T22:15:56.430Z,14.13
2018-09-02T22:19:00.901Z,14.40
2018-09-02T22:22:05.597Z,14.29
2018-09-02T22:25:10.404Z,14.16
2018-09-02T22:28:14.766Z,14.15
2018-09-02T22:31:19.261Z,14.12
2018-09-02T22:34:23.873Z,14.08
2018-09-02T22:37:28.937Z,14.05
2018-09-02T22:40:33.284Z,13.95
2018-09-02T22:43:37.862Z,13.76
2018-09-02T22:46:42.324Z,13.68
2018-09-02T22:49:47.832Z,13.58
2018-09-02T22:52:52.607Z,13.51
2018-09-02T22:55:58.358Z,13.58
2018-09-02T22:59:02.707Z,13.58
2018-09-02T23:02:07.053Z,13.44
2018-09-02T23:05:11.477Z,13.60
2018-09-02T23:08:15.869Z,13.43
2018-09-02T23:11:20.491Z,13.30
2018-09-02T23:14:24.848Z,13.23
2018-09-02T23:17:30.210Z,13.25
2018-09-02T23:20:34.741Z,13.25
2018-09-02T23:23:39.234Z,13.30
2018-09-02T23:26:43.901Z,13.49
2018-09-02T23:29:48.293Z,13.64
2018-09-02T23:32:52.780Z,13.62
2018-09-02T23:35:57.127Z,13.63
2018-09-02T23:39:01.539Z,13.71
2018-09-02T23:42:06.165Z,13.69
2018-09-02T23:45:10.496Z,13.77
2018-09-02T23:48:15.128Z,13.76
2018-09-02T23:51:20.960Z,13.85
2018-09-02T23:54:25.407Z,13.81
2018-09-02T23:57:29.747Z,13.80
